createdAt,value
2024-02-24T00:02:19.083Z,89.87
2024-02-24T00:05:09.447Z,89.32
2024-02-24T00:07:58.905Z,89.81
2024-02-24T00:10:48.961Z,89.71
2024-02-24T00:13:39.868Z,89.72
2024-02-24T00:16:29.385Z,90.06
2024-02-24T00:19:18.792Z,90.00
2024-02-24T00:22:08.124Z,89.31
2024-02-24T00:24:57.509Z,89.46
2024-02-24T00:27:46.902Z,89.91
2024-02-24T00:30:38.167Z,90.33
2024-02-24T00:33:27.646Z,90.80
2024-02-24T00:36:17.009Z,90.66
2024-02-24T00:39:07.057Z,90.45
2024-02-24T00:41:56.625Z,90.67
2024-02-24T00:44:46.085Z,90.65
2024-02-24T00:47:36.966Z,90.65
2024-02-24T00:50:30.441Z,90.68
2024-02-24T00:53:20.055Z,90.44
2024-02-24T00:56:09.731Z,90.84
2024-02-24T00:58:59.306Z,90.69
2024-02-24T01:01:49.542Z,90.86
2024-02-24T01:04:40.363Z,91.87
2024-02-24T01:07:29.850Z,90.95
2024-02-24T01:10:19.312Z,91.30
2024-02-24T01:13:08.721Z,91.42
2024-02-24T01:15:58.171Z,91.23
2024-02-24T01:18:47.931Z,91.12
2024-02-24T01:21:43.844Z,90.69
2024-02-24T01:24:33.272Z,90.64
2024-02-24T01:27:22.676Z,90.53
2024-02-24T01:30:13.057Z,91.00
2024-02-24T01:33:03.859Z,91.55
2024-02-24T01:35:53.542Z,92.27
2024-02-24T01:38:44.589Z,94.31
2024-02-24T01:41:34.222Z,94.27
2024-02-24T01:44:23.793Z,94.63
2024-02-24T01:47:13.448Z,94.41
2024-02-24T01:50:03.158Z,94.75
2024-02-24T01:52:52.932Z,95.23
2024-02-24T01:55:44.255Z,94.71
2024-02-24T01:58:36.828Z,94.42
2024-02-24T02:01:26.619Z,94.45
2024-02-24T02:04:18.946Z,93.50
2024-02-24T02:07:08.430Z,93.43
2024-02-24T02:09:58.867Z,93.52
2024-02-24T02:12:49.918Z,93.52
2024-02-24T02:15:39.457Z,92.89
2024-02-24T02:18:31.766Z,93.05
2024-02-24T02:21:23.250Z,92.48
2024-02-24T02:24:14.152Z,92.54
2024-02-24T02:27:07.881Z,92.10
2024-02-24T02:30:01.427Z,92.41
2024-02-24T02:32:51.127Z,93.04
2024-02-24T02:35:41.285Z,93.15
2024-02-24T02:38:30.618Z,92.89
2024-02-24T02:41:21.604Z,93.08
2024-02-24T02:44:11.678Z,93.50
2024-02-24T02:47:03.999Z,93.42
2024-02-24T02:49:55.098Z,94.22
2024-02-24T02:52:44.598Z,93.60
2024-02-24T02:55:34.046Z,94.62
2024-02-24T02:58:25.016Z,94.85
2024-02-24T03:01:14.456Z,94.66
2024-02-24T03:04:03.984Z,95.35
2024-02-24T03:06:53.645Z,94.73
2024-02-24T03:09:48.997Z,95.04
2024-02-24T03:12:38.686Z,95.20
2024-02-24T03:15:29.846Z,95.38
2024-02-24T03:18:19.386Z,95.17
2024-02-24T03:21:08.937Z,95.89
2024-02-24T03:23:58.709Z,95.25
2024-02-24T03:26:48.246Z,95.33
2024-02-24T03:29:37.674Z,95.92
2024-02-24T03:32:28.738Z,95.94
2024-02-24T03:35:18.292Z,95.70
2024-02-24T03:38:07.755Z,95.45
2024-02-24T03:40:57.087Z,95.52
2024-02-24T03:43:46.659Z,95.89
2024-02-24T03:46:36.159Z,95.81
2024-02-24T03:49:27.085Z,95.67
2024-02-24T03:52:16.496Z,95.68
2024-02-24T03:55:06.892Z,96.00
2024-02-24T03:57:56.353Z,95.36
2024-02-24T04:00:45.756Z,96.29
2024-02-24T04:03:35.150Z,95.94
2024-02-24T04:06:26.063Z,96.26
2024-02-24T04:09:15.498Z,96.15
2024-02-24T04:12:05.494Z,96.25
2024-02-24T04:14:55.832Z,96.90
2024-02-24T04:17:45.353Z,96.72
2024-02-24T04:20:34.914Z,97.28
2024-02-24T04:23:25.878Z,96.89
2024-02-24T04:26:15.201Z,97.67
2024-02-24T04:29:04.750Z,97.69
2024-02-24T04:31:54.543Z,97.72
2024-02-24T04:34:43.888Z,97.48
2024-02-24T04:37:33.396Z,97.87
2024-02-24T04:40:24.286Z,98.25
2024-02-24T04:43:13.678Z,97.85
2024-02-24T04:46:03.425Z,98.01
2024-02-24T04:48:52.862Z,97.94
2024-02-24T04:51:42.396Z,98.21
2024-02-24T04:54:31.792Z,98.44
2024-02-24T04:57:22.681Z,98.58
2024-02-24T05:00:13.722Z,98.34
2024-02-24T05:03:03.935Z,98.24
2024-02-24T05:05:53.501Z,98.24
2024-02-24T05:08:45.166Z,98.54
2024-02-24T05:11:35.046Z,98.79
2024-02-24T05:14:25.850Z,98.82
2024-02-24T05:17:17.420Z,99.09
2024-02-24T05:20:08.660Z,99.91
2024-02-24T05:22:58.129Z,99.50
2024-02-24T05:25:49.683Z,99.17
2024-02-24T05:28:39.307Z,98.85
2024-02-24T05:31:30.246Z,98.96
2024-02-24T05:34:19.611Z,98.98
2024-02-24T05:37:09.074Z,100.00
2024-02-24T05:39:59.802Z,100.00
2024-02-24T05:42:49.321Z,100.00
2024-02-24T05:45:39.771Z,99.98
2024-02-24T05:48:31.247Z,100.00
2024-02-24T05:51:22.678Z,100.00
2024-02-24T05:54:12.354Z,100.00
2024-02-24T05:57:03.403Z,100.00
2024-02-24T05:59:53.316Z,100.00
2024-02-24T06:02:42.698Z,100.00
2024-02-24T06:05:33.945Z,99.70
2024-02-24T06:08:23.412Z,100.00
2024-02-24T06:11:13.071Z,100.00
2024-02-24T06:14:02.511Z,99.85
2024-02-24T06:16:51.992Z,100.00
2024-02-24T06:19:41.799Z,100.00
2024-02-24T06:22:32.790Z,100.00
2024-02-24T06:25:22.166Z,100.00
2024-02-24T06:28:12.106Z,100.00
2024-02-24T06:31:01.677Z,100.00
2024-02-24T06:33:51.481Z,100.00
2024-02-24T06:36:40.993Z,99.87
2024-02-24T06:39:31.950Z,100.00
2024-02-24T06:42:21.446Z,100.00
2024-02-24T06:45:11.493Z,100.00
2024-02-24T06:48:00.952Z,100.00
2024-02-24T06:50:50.637Z,100.00
2024-02-24T06:53:40.076Z,100.00
2024-02-24T06:56:30.959Z,100.00
2024-02-24T06:59:20.458Z,100.00
2024-02-24T07:02:10.145Z,100.00
2024-02-24T07:04:59.615Z,100.00
2024-02-24T07:07:49.239Z,100.00
2024-02-24T07:10:38.710Z,100.00
2024-02-24T07:13:29.492Z,100.00
2024-02-24T07:16:19.328Z,100.00
2024-02-24T07:19:08.842Z,100.00
2024-02-24T07:21:58.490Z,100.00
2024-02-24T07:24:47.893Z,100.00
2024-02-24T07:27:37.372Z,100.00
2024-02-24T07:30:28.512Z,100.00
2024-02-24T07:33:18.028Z,100.00
2024-02-24T07:36:08.708Z,100.00
2024-02-24T07:38:58.237Z,100.00
2024-02-24T07:41:47.945Z,100.00
2024-02-24T07:44:37.521Z,100.00
2024-02-24T07:47:28.384Z,100.00
2024-02-24T07:50:18.272Z,100.00
2024-02-24T07:53:08.762Z,100.00
2024-02-24T07:55:58.225Z,100.00
2024-02-24T07:58:47.553Z,100.00
2024-02-24T08:01:36.918Z,100.00
2024-02-24T08:04:27.617Z,100.00
2024-02-24T08:07:17.254Z,100.00
2024-02-24T08:10:08.095Z,100.00
2024-02-24T08:12:57.490Z,100.00
2024-02-24T08:15:46.890Z,100.00
2024-02-24T08:18:36.858Z,100.00
2024-02-24T08:21:27.869Z,100.00
2024-02-24T08:24:18.096Z,100.00
2024-02-24T08:27:07.739Z,100.00
2024-02-24T08:29:57.123Z,100.00
2024-02-24T08:32:48.548Z,100.00
2024-02-24T08:35:39.103Z,100.00
2024-02-24T08:38:30.037Z,100.00
2024-02-24T08:41:19.375Z,100.00
2024-02-24T08:44:08.848Z,100.00
2024-02-24T08:46:58.264Z,100.00
2024-02-24T08:49:47.850Z,100.00
2024-02-24T08:52:46.150Z,100.00
2024-02-24T08:55:41.109Z,100.00
2024-02-24T08:58:30.565Z,100.00
2024-02-24T09:01:20.668Z,100.00
2024-02-24T09:04:10.042Z,100.00
2024-02-24T09:06:59.477Z,100.00
2024-02-24T09:09:48.962Z,100.00
2024-02-24T09:12:39.824Z,100.00
2024-02-24T09:15:32.212Z,100.00
2024-02-24T09:18:21.877Z,100.00
2024-02-24T09:21:13.250Z,100.00
2024-02-24T09:24:02.905Z,100.00
2024-02-24T09:26:53.487Z,100.00
2024-02-24T09:29:44.726Z,100.00
2024-02-24T09:32:34.119Z,100.00
2024-02-24T09:35:23.691Z,100.00
2024-02-24T09:38:13.139Z,100.00
2024-02-24T09:41:02.863Z,99.96
2024-02-24T09:43:53.522Z,100.00
2024-02-24T09:46:45.594Z,100.00
2024-02-24T09:49:35.203Z,99.03
2024-02-24T09:52:24.919Z,99.10
2024-02-24T09:55:14.318Z,97.94
2024-02-24T09:58:04.553Z,98.15
2024-02-24T10:00:54.228Z,98.20
2024-02-24T10:03:47.174Z,97.52
2024-02-24T10:06:36.743Z,96.24
2024-02-24T10:09:26.174Z,96.54
2024-02-24T10:12:15.575Z,95.89
2024-02-24T10:15:05.245Z,96.02
2024-02-24T10:18:00.092Z,97.23
2024-02-24T10:20:52.899Z,97.41
2024-02-24T10:23:42.372Z,96.97
2024-02-24T10:26:31.912Z,96.02
2024-02-24T10:29:22.552Z,95.81
2024-02-24T10:32:13.767Z,95.37
2024-02-24T10:35:05.444Z,95.16
2024-02-24T10:38:11.422Z,94.77
2024-02-24T10:41:09.283Z,94.76
2024-02-24T10:44:10.398Z,94.15
2024-02-24T10:47:08.289Z,93.84
2024-02-24T10:49:57.714Z,93.78
2024-02-24T10:52:48.055Z,93.63
2024-02-24T10:55:40.068Z,93.34
2024-02-24T10:58:29.591Z,93.48
2024-02-24T11:01:20.791Z,93.44
2024-02-24T11:04:11.677Z,93.34
2024-02-24T11:07:02.599Z,92.88
2024-02-24T11:09:56.423Z,90.40
2024-02-24T11:12:47.295Z,88.49
2024-02-24T11:15:36.593Z,87.38
2024-02-24T11:18:56.524Z,85.14
2024-02-24T11:22:03.651Z,82.78
2024-02-24T11:25:03.549Z,81.17
2024-02-24T11:27:59.613Z,81.60
2024-02-24T11:30:53.913Z,81.21
2024-02-24T11:33:43.555Z,82.03
2024-02-24T11:36:34.773Z,81.54
2024-02-24T11:39:25.128Z,82.13
2024-02-24T11:42:16.544Z,82.67
2024-02-24T11:45:09.571Z,82.61
2024-02-24T11:47:59.074Z,82.63
2024-02-24T11:50:49.298Z,82.76
2024-02-24T11:53:38.715Z,82.33
2024-02-24T11:56:28.222Z,82.89
2024-02-24T11:59:18.017Z,80.67
2024-02-24T12:02:08.934Z,81.25
2024-02-24T12:05:15.423Z,80.31
2024-02-24T12:08:07.829Z,80.75
2024-02-24T12:10:57.346Z,79.84
2024-02-24T12:13:48.108Z,80.05
2024-02-24T12:16:39.420Z,77.58
2024-02-24T12:19:31.965Z,77.90
2024-02-24T12:22:24.317Z,78.04
2024-02-24T12:25:17.075Z,76.78
2024-02-24T12:28:07.894Z,77.26
2024-02-24T12:30:57.328Z,77.99
2024-02-24T12:33:47.857Z,78.16
2024-02-24T12:36:38.828Z,78.38
2024-02-24T12:39:31.168Z,78.77
2024-02-24T12:42:21.229Z,79.11
2024-02-24T12:45:11.482Z,79.53
2024-02-24T12:48:00.831Z,79.37
2024-02-24T12:50:51.159Z,78.71
2024-02-24T12:53:42.846Z,78.31
2024-02-24T12:56:32.361Z,77.16
2024-02-24T12:59:23.470Z,76.41
2024-02-24T13:02:13.034Z,75.40
2024-02-24T13:05:02.558Z,72.26
2024-02-24T13:07:53.156Z,72.11
2024-02-24T13:10:44.284Z,71.13
2024-02-24T13:13:33.656Z,70.26
2024-02-24T13:16:23.036Z,70.34
2024-02-24T13:19:12.453Z,70.56
2024-02-24T13:22:01.935Z,70.23
2024-02-24T13:24:51.396Z,71.41
2024-02-24T13:27:42.231Z,71.58
2024-02-24T13:30:31.467Z,71.79
2024-02-24T13:33:21.179Z,71.71
2024-02-24T13:36:11.072Z,71.09
2024-02-24T13:39:00.716Z,71.97
2024-02-24T13:41:52.668Z,73.04
2024-02-24T13:44:43.701Z,75.43
2024-02-24T13:47:33.122Z,75.32
2024-02-24T13:50:23.982Z,75.30
2024-02-24T13:53:13.633Z,75.47
2024-02-24T13:56:05.170Z,77.13
2024-02-24T13:58:55.075Z,77.74
2024-02-24T14:01:45.769Z,77.93
2024-02-24T14:04:35.129Z,78.17
2024-02-24T14:07:25.212Z,77.33
2024-02-24T14:10:14.473Z,77.56
2024-02-24T14:13:04.030Z,76.00
2024-02-24T14:15:53.442Z,75.86
2024-02-24T14:18:44.356Z,75.55
2024-02-24T14:21:33.763Z,75.56
2024-02-24T14:24:23.161Z,74.45
2024-02-24T14:27:12.609Z,73.98
2024-02-24T14:30:02.055Z,73.51
2024-02-24T14:32:52.191Z,74.31
2024-02-24T14:35:43.374Z,74.90
2024-02-24T14:38:33.006Z,74.42
2024-02-24T14:41:22.903Z,75.14
2024-02-24T14:44:12.533Z,74.91
2024-02-24T14:47:06.399Z,75.62
2024-02-24T14:49:55.961Z,75.18
2024-02-24T14:52:47.046Z,74.74
2024-02-24T14:55:36.416Z,74.20
2024-02-24T14:58:25.776Z,73.81
2024-02-24T15:01:15.944Z,74.09
2024-02-24T15:04:06.193Z,73.16
2024-02-24T15:06:55.982Z,72.40
2024-02-24T15:09:48.925Z,71.89
2024-02-24T15:12:38.486Z,72.37
2024-02-24T15:15:27.776Z,72.97
2024-02-24T15:18:17.439Z,71.31
2024-02-24T15:21:07.835Z,71.07
2024-02-24T15:23:57.280Z,71.10
2024-02-24T15:26:48.398Z,71.32
2024-02-24T15:29:37.991Z,71.20
2024-02-24T15:32:27.638Z,71.65
2024-02-24T15:35:17.617Z,72.23
2024-02-24T15:38:07.756Z,72.28
2024-02-24T15:40:57.139Z,72.59
2024-02-24T15:43:48.222Z,72.81
2024-02-24T15:46:37.680Z,72.96
2024-02-24T15:49:27.004Z,73.28
2024-02-24T15:52:16.758Z,73.74
2024-02-24T15:55:07.085Z,73.84
2024-02-24T15:57:56.631Z,73.92
2024-02-24T16:00:47.875Z,74.24
2024-02-24T16:03:37.411Z,75.11
2024-02-24T16:06:27.434Z,74.81
2024-02-24T16:09:17.478Z,74.85
2024-02-24T16:12:07.973Z,74.81
2024-02-24T16:14:57.394Z,75.02
2024-02-24T16:17:49.194Z,75.12
2024-02-24T16:20:38.625Z,75.40
2024-02-24T16:23:28.086Z,75.53
2024-02-24T16:26:17.534Z,75.37
2024-02-24T16:29:07.056Z,75.14
2024-02-24T16:31:56.617Z,75.50
2024-02-24T16:34:47.903Z,75.58
2024-02-24T16:37:37.415Z,76.46
2024-02-24T16:40:26.805Z,76.21
2024-02-24T16:43:16.217Z,76.69
2024-02-24T16:46:05.995Z,77.02
2024-02-24T16:48:55.764Z,77.19
2024-02-24T16:51:46.990Z,77.16
2024-02-24T16:54:39.118Z,77.69
2024-02-24T16:57:28.948Z,77.98
2024-02-24T17:00:19.346Z,78.16
2024-02-24T17:03:08.613Z,78.15
2024-02-24T17:05:58.680Z,77.98
2024-02-24T17:08:49.866Z,78.08
2024-02-24T17:11:39.373Z,78.76
2024-02-24T17:14:28.846Z,78.72
2024-02-24T17:17:19.473Z,78.92
2024-02-24T17:20:10.502Z,78.43
2024-02-24T17:23:03.150Z,78.65
2024-02-24T17:25:53.869Z,79.13
2024-02-24T17:28:43.349Z,78.68
2024-02-24T17:31:32.648Z,78.90
2024-02-24T17:34:22.561Z,78.85
2024-02-24T17:37:12.041Z,79.04
2024-02-24T17:40:01.449Z,78.92
2024-02-24T17:42:52.244Z,78.74
2024-02-24T17:45:41.686Z,78.65
2024-02-24T17:48:31.408Z,78.83
2024-02-24T17:51:20.911Z,78.99
2024-02-24T17:54:10.378Z,79.16
2024-02-24T17:56:59.824Z,79.16
2024-02-24T17:59:50.761Z,79.24
2024-02-24T18:02:41.156Z,79.88
2024-02-24T18:05:30.613Z,79.61
2024-02-24T18:08:20.126Z,80.42
2024-02-24T18:11:10.904Z,80.19
2024-02-24T18:14:00.583Z,79.80
2024-02-24T18:16:51.354Z,79.95
2024-02-24T18:19:40.748Z,79.74
2024-02-24T18:22:30.085Z,79.92
2024-02-24T18:25:19.642Z,80.13
2024-02-24T18:28:09.095Z,80.92
2024-02-24T18:30:59.660Z,80.49
2024-02-24T18:33:50.739Z,81.10
2024-02-24T18:36:40.469Z,81.21
2024-02-24T18:39:30.353Z,81.59
2024-02-24T18:42:23.650Z,81.82
2024-02-24T18:45:13.796Z,81.63
2024-02-24T18:48:04.054Z,81.88
2024-02-24T18:50:55.575Z,81.62
2024-02-24T18:53:48.079Z,82.12
2024-02-24T18:56:37.593Z,82.25
2024-02-24T18:59:27.058Z,82.88
2024-02-24T19:02:17.438Z,82.49
2024-02-24T19:05:07.501Z,82.55
2024-02-24T19:07:58.347Z,83.48
2024-02-24T19:10:47.869Z,83.73
2024-02-24T19:13:37.295Z,83.86
2024-02-24T19:16:26.931Z,83.91
2024-02-24T19:19:16.673Z,83.98
2024-02-24T19:22:06.499Z,84.11
2024-02-24T19:24:57.279Z,84.39
2024-02-24T19:27:47.303Z,84.12
2024-02-24T19:30:37.004Z,84.26
2024-02-24T19:33:26.609Z,84.05
2024-02-24T19:36:16.108Z,83.70
2024-02-24T19:39:15.604Z,83.61
2024-02-24T19:42:10.587Z,83.73
2024-02-24T19:45:01.009Z,83.21
2024-02-24T19:47:50.610Z,83.42
2024-02-24T19:50:40.459Z,83.48
2024-02-24T19:53:29.831Z,83.20
2024-02-24T19:56:19.262Z,83.34
2024-02-24T19:59:10.464Z,83.30
2024-02-24T20:02:00.787Z,83.32
2024-02-24T20:04:50.054Z,83.40
2024-02-24T20:07:39.585Z,83.45
2024-02-24T20:10:29.381Z,83.59
2024-02-24T20:13:18.669Z,83.79
2024-02-24T20:16:09.793Z,84.14
2024-02-24T20:18:59.243Z,83.79
2024-02-24T20:21:48.734Z,83.99
2024-02-24T20:24:38.066Z,83.86
2024-02-24T20:27:28.193Z,84.01
2024-02-24T20:30:20.801Z,84.10
2024-02-24T20:33:12.135Z,83.84
2024-02-24T20:36:01.619Z,83.43
2024-02-24T20:38:52.339Z,83.35
2024-02-24T20:41:42.487Z,83.37
2024-02-24T20:44:31.898Z,83.77
2024-02-24T20:47:22.821Z,83.60
2024-02-24T20:50:13.881Z,83.86
2024-02-24T20:53:05.285Z,83.72
2024-02-24T20:55:54.673Z,83.88
2024-02-24T20:58:44.090Z,84.06
2024-02-24T21:01:33.401Z,84.02
2024-02-24T21:04:22.917Z,83.88
2024-02-24T21:07:14.486Z,84.15
2024-02-24T21:10:03.933Z,84.33
2024-02-24T21:12:53.567Z,84.49
2024-02-24T21:15:42.909Z,84.48
2024-02-24T21:18:32.903Z,85.36
2024-02-24T21:21:23.271Z,85.14
2024-02-24T21:24:14.113Z,85.14
2024-02-24T21:27:03.677Z,85.50
2024-02-24T21:29:53.788Z,85.32
2024-02-24T21:32:43.504Z,85.46
2024-02-24T21:35:33.244Z,85.47
2024-02-24T21:38:23.057Z,85.81
2024-02-24T21:41:19.016Z,85.62
2024-02-24T21:44:09.020Z,85.36
2024-02-24T21:46:58.517Z,86.57
2024-02-24T21:49:47.872Z,86.30
2024-02-24T21:52:37.174Z,87.09
2024-02-24T21:55:27.032Z,87.45
2024-02-24T21:58:18.525Z,87.19
2024-02-24T22:01:07.888Z,87.97
2024-02-24T22:03:57.472Z,88.16
2024-02-24T22:06:47.473Z,88.84
2024-02-24T22:09:37.466Z,88.98
2024-02-24T22:12:27.142Z,88.92
2024-02-24T22:15:19.762Z,88.94
2024-02-24T22:18:09.723Z,88.84
2024-02-24T22:20:59.449Z,89.27
2024-02-24T22:23:51.678Z,89.90
2024-02-24T22:26:44.351Z,90.09
2024-02-24T22:29:34.008Z,89.84
2024-02-24T22:32:25.096Z,89.42
2024-02-24T22:35:15.563Z,89.88
2024-02-24T22:38:05.477Z,89.29
2024-02-24T22:40:54.874Z,89.60
2024-02-24T22:43:44.510Z,89.47
2024-02-24T22:46:34.360Z,89.72
2024-02-24T22:49:25.352Z,89.51
2024-02-24T22:52:17.847Z,89.37
2024-02-24T22:55:09.803Z,89.69
2024-02-24T22:57:59.468Z,89.21
2024-02-24T23:00:48.964Z,89.08
2024-02-24T23:03:38.415Z,89.03
2024-02-24T23:06:29.313Z,89.71
2024-02-24T23:09:19.104Z,89.33
2024-02-24T23:12:09.298Z,88.92
2024-02-24T23:14:58.924Z,89.38
2024-02-24T23:17:48.517Z,89.44
2024-02-24T23:20:37.810Z,90.08
2024-02-24T23:23:28.648Z,89.48
2024-02-24T23:26:18.114Z,90.12
2024-02-24T23:29:07.478Z,90.08
2024-02-24T23:31:56.864Z,90.27
2024-02-24T23:34:47.128Z,90.58
2024-02-24T23:37:36.612Z,90.64
2024-02-24T23:40:27.677Z,91.08
2024-02-24T23:43:17.001Z,91.02
2024-02-24T23:46:06.886Z,91.50
2024-02-24T23:48:56.623Z,91.76
2024-02-24T23:51:46.144Z,91.62
2024-02-24T23:54:35.676Z,92.45
2024-02-24T23:57:30.185Z,92.57
